Time;durP1;ratioP1;P1;durP2;ratioP2;P2;SDS_P1;SDS_P2;PMS_P1;PMS_P2;Temp;Humidity;BMP_temperature;BMP_pressure;BME280_temperature;BME280_humidity;BME280_pressure;Samples;Min_cycle;Max_cycle;Signal;HPM_P1;HPM_P2
2022/10/03 00:02:14;;;;;;;19.10;5.10;;;9.10;99.90;;;;;;5033270;28;20734;-55
2022/10/03 00:05:01;;;;;;;20.57;6.37;;;9.10;99.90;;;;;;5033752;28;20563;-56
2022/10/03 00:07:49;;;;;;;13.90;4.80;;;9.10;99.90;;;;;;5033967;28;20229;-54
2022/10/03 00:10:28;;;;;;;18.57;5.73;;;9.10;99.90;;;;;;5033519;28;20312;-55
2022/10/03 00:13:18;;;;;;;17.63;4.97;;;9.10;99.90;;;;;;5033347;28;20305;-55
2022/10/03 00:15:52;;;;;;;12.03;5.20;;;9.10;99.90;;;;;;5033195;28;20673;-56
2022/10/03 00:18:34;;;;;;;15.40;6.00;;;9.00;99.90;;;;;;5032986;28;20308;-57
2022/10/03 00:21:18;;;;;;;16.83;5.73;;;9.00;99.90;;;;;;5033348;28;20212;-56
2022/10/03 00:23:52;;;;;;;21.87;6.20;;;9.00;99.90;;;;;;5033103;28;20207;-56
2022/10/03 00:26:29;;;;;;;14.07;5.40;;;9.00;99.90;;;;;;5032978;28;20202;-56
2022/10/03 00:29:24;;;;;;;19.97;5.83;;;9.00;99.90;;;;;;5032998;28;20222;-57
2022/10/03 00:32:00;;;;;;;22.60;7.43;;;9.00;99.90;;;;;;5033009;28;20202;-56
2022/10/03 00:34:38;;;;;;;23.53;8.87;;;8.90;99.90;;;;;;5033099;28;20205;-57
2022/10/03 00:37:25;;;;;;;25.00;7.80;;;8.90;99.90;;;;;;5032588;28;20213;-53
2022/10/03 00:40:24;;;;;;;26.43;9.10;;;8.90;99.90;;;;;;5033299;28;20205;-57
2022/10/03 00:43:34;;;;;;;21.90;7.73;;;8.90;99.90;;;;;;5032790;28;20251;-57
2022/10/03 00:46:29;;;;;;;21.13;6.60;;;8.90;99.90;;;;;;5032464;28;20225;-57
2022/10/03 00:49:26;;;;;;;19.23;7.30;;;8.90;99.90;;;;;;5032756;28;20230;-56
2022/10/03 00:52:07;;;;;;;20.43;6.23;;;8.90;99.90;;;;;;5002359;28;20280;-55
2022/10/03 00:54:46;;;;;;;17.40;6.03;;;8.90;99.90;;;;;;5032614;28;20208;-54
2022/10/03 00:57:34;;;;;;;22.57;6.87;;;8.90;99.90;;;;;;5032451;28;20274;-54
2022/10/03 01:00:23;;;;;;;14.10;6.30;;;8.90;99.90;;;;;;5028718;28;20208;-57
2022/10/03 01:03:05;;;;;;;16.97;6.07;;;8.90;99.90;;;;;;5029156;28;20717;-60
2022/10/03 01:05:46;;;;;;;15.17;5.87;;;8.80;99.90;;;;;;5032215;28;20255;-57
2022/10/03 01:08:32;;;;;;;19.80;6.50;;;8.80;99.90;;;;;;5031248;28;20287;-57
2022/10/03 01:11:07;;;;;;;20.53;6.23;;;8.80;99.90;;;;;;5032558;28;20280;-57
2022/10/03 01:13:45;;;;;;;18.03;6.40;;;8.80;99.90;;;;;;5032451;28;20208;-56
2022/10/03 01:16:20;;;;;;;16.33;5.87;;;8.80;99.90;;;;;;5032038;28;20247;-57
2022/10/03 01:19:00;;;;;;;18.13;6.37;;;8.80;99.90;;;;;;5031905;28;20232;-57
2022/10/03 01:21:36;;;;;;;17.23;6.30;;;8.80;99.90;;;;;;5032458;28;20582;-56
2022/10/03 01:24:23;;;;;;;15.37;6.87;;;8.80;99.90;;;;;;5031833;28;20625;-54
2022/10/03 01:26:58;;;;;;;19.17;5.97;;;8.80;99.90;;;;;;5032228;28;20291;-57
2022/10/03 01:32:36;;;;;;;19.57;6.63;;;8.80;99.90;;;;;;5032293;28;20214;-56
2022/10/03 01:35:14;;;;;;;20.43;6.77;;;8.80;99.90;;;;;;5032024;28;20580;-55
2022/10/03 01:37:50;;;;;;;18.57;6.40;;;8.80;99.90;;;;;;5031588;28;20233;-56
2022/10/03 01:40:24;;;;;;;18.63;6.60;;;8.80;99.90;;;;;;5032169;28;20219;-56
2022/10/03 01:43:03;;;;;;;23.57;5.97;;;8.80;99.90;;;;;;5035285;28;20668;-56
2022/10/03 01:45:44;;;;;;;23.90;6.97;;;8.80;99.90;;;;;;5038525;28;20273;-57
2022/10/03 01:48:16;;;;;;;20.33;6.53;;;8.80;99.90;;;;;;5038370;28;20307;-56
2022/10/03 01:50:50;;;;;;;21.63;6.63;;;8.80;99.90;;;;;;5038720;28;20254;-56
2022/10/03 01:53:26;;;;;;;18.80;7.50;;;8.80;99.90;;;;;;5036865;28;20204;-55
2022/10/03 01:55:59;;;;;;;23.10;7.13;;;8.80;99.90;;;;;;5034162;28;20683;-54
2022/10/03 01:58:34;;;;;;;17.07;6.57;;;8.80;99.90;;;;;;5038242;28;20233;-56
2022/10/03 02:01:10;;;;;;;28.23;6.83;;;8.80;99.90;;;;;;5038609;28;20206;-56
2022/10/03 02:03:44;;;;;;;19.40;6.73;;;8.80;99.90;;;;;;5038150;28;20213;-57
2022/10/03 02:06:21;;;;;;;24.00;7.20;;;8.80;99.90;;;;;;5038310;28;20208;-54
2022/10/03 02:08:54;;;;;;;23.13;7.07;;;8.80;99.90;;;;;;5038251;28;20319;-56
2022/10/03 02:11:32;;;;;;;28.53;7.17;;;8.70;99.90;;;;;;5038698;28;20220;-56
2022/10/03 02:14:10;;;;;;;21.07;7.10;;;8.70;99.90;;;;;;5038252;28;20213;-54
2022/10/03 02:16:42;;;;;;;20.73;6.80;;;8.70;99.90;;;;;;5038138;28;20267;-54
2022/10/03 02:19:20;;;;;;;20.33;7.00;;;8.70;99.90;;;;;;5038103;28;20641;-55
2022/10/03 02:21:49;;;;;;;19.57;6.60;;;8.70;99.90;;;;;;5038358;28;20235;-57
2022/10/03 02:24:31;;;;;;;19.80;7.37;;;8.80;99.90;;;;;;5038320;28;20217;-56
2022/10/03 02:27:40;;;;;;;20.47;6.97;;;8.70;99.90;;;;;;5038143;28;20990;-56
2022/10/03 02:30:14;;;;;;;17.10;6.10;;;8.70;99.90;;;;;;5038448;28;20200;-51
2022/10/03 02:33:23;;;;;;;15.40;7.03;;;8.70;99.90;;;;;;5037959;28;20204;-52
2022/10/03 02:36:07;;;;;;;19.43;6.70;;;8.70;99.90;;;;;;5038092;28;20209;-54
2022/10/03 02:39:05;;;;;;;25.77;6.77;;;8.70;99.90;;;;;;5037849;28;20283;-54
2022/10/03 02:41:53;;;;;;;21.93;7.37;;;8.70;99.90;;;;;;5038240;28;20218;-55
2022/10/03 02:44:48;;;;;;;20.27;7.37;;;8.80;99.90;;;;;;5037942;28;20208;-57
2022/10/03 02:47:54;;;;;;;21.00;7.87;;;8.80;99.90;;;;;;5028144;28;20228;-56
2022/10/03 02:51:03;;;;;;;25.87;7.70;;;8.90;99.90;;;;;;5037898;28;20201;-53
2022/10/03 02:53:56;;;;;;;28.20;7.37;;;9.00;99.90;;;;;;5007397;28;20213;-56
2022/10/03 02:56:57;;;;;;;22.17;7.77;;;9.00;99.90;;;;;;5034732;28;20216;-55
2022/10/03 02:59:50;;;;;;;21.47;7.43;;;9.00;99.90;;;;;;5034495;28;20723;-50
2022/10/03 03:02:42;;;;;;;20.40;7.63;;;9.00;99.90;;;;;;5027438;28;20206;-54
2022/10/03 03:05:41;;;;;;;28.30;8.53;;;8.90;99.90;;;;;;5006163;28;20217;-53
2022/10/03 03:08:42;;;;;;;18.20;7.17;;;8.90;99.90;;;;;;5034299;28;20225;-52
2022/10/03 03:11:26;;;;;;;29.13;8.80;;;8.80;99.90;;;;;;5034527;28;20208;-52
2022/10/03 03:14:28;;;;;;;26.43;9.30;;;8.80;99.90;;;;;;5034331;28;20216;-54
2022/10/03 03:17:00;;;;;;;27.73;9.27;;;8.80;99.90;;;;;;5034142;28;20303;-53
2022/10/03 03:19:50;;;;;;;24.87;9.23;;;8.80;99.90;;;;;;5034204;28;20229;-53
2022/10/03 03:22:33;;;;;;;23.40;8.77;;;8.70;99.90;;;;;;5034454;28;20202;-54
2022/10/03 03:25:28;;;;;;;29.17;9.47;;;8.70;99.90;;;;;;5033985;28;20241;-56
2022/10/03 03:28:23;;;;;;;23.73;9.17;;;8.70;99.90;;;;;;5034082;28;20324;-54
2022/10/03 03:30:58;;;;;;;24.17;9.57;;;8.70;99.90;;;;;;5034111;28;20621;-52
2022/10/03 03:33:32;;;;;;;32.30;10.27;;;8.60;99.90;;;;;;5033867;28;20688;-54
2022/10/03 03:36:05;;;;;;;24.13;8.87;;;8.60;99.90;;;;;;5033781;28;20222;-53
2022/10/03 03:38:40;;;;;;;27.87;9.27;;;8.60;99.90;;;;;;5034003;28;20899;-56
2022/10/03 03:41:25;;;;;;;22.17;9.07;;;8.60;99.90;;;;;;5034108;28;20262;-56
2022/10/03 03:44:07;;;;;;;26.40;9.40;;;8.60;99.90;;;;;;5034318;28;20304;-56
2022/10/03 03:46:46;;;;;;;23.33;9.50;;;8.60;99.90;;;;;;5034095;28;20215;-56
2022/10/03 03:49:30;;;;;;;21.80;9.00;;;8.60;99.90;;;;;;5034217;28;20231;-56
2022/10/03 03:52:10;;;;;;;29.87;11.33;;;8.70;99.90;;;;;;5034298;28;20209;-54
2022/10/03 03:55:04;;;;;;;25.73;10.40;;;8.60;99.90;;;;;;5034041;28;20276;-53
2022/10/03 03:57:54;;;;;;;29.27;10.93;;;8.70;99.90;;;;;;5033455;28;20226;-53
2022/10/03 04:00:29;;;;;;;34.43;10.97;;;8.70;99.90;;;;;;5033161;28;20233;-51
2022/10/03 04:03:11;;;;;;;42.13;12.47;;;8.80;99.90;;;;;;5033181;28;20680;-55
2022/10/03 04:05:50;;;;;;;27.63;11.17;;;8.90;99.90;;;;;;5033185;28;20280;-56
2022/10/03 04:08:33;;;;;;;35.13;10.87;;;8.90;99.90;;;;;;5033116;28;20236;-55
2022/10/03 04:11:13;;;;;;;45.53;11.80;;;9.00;99.90;;;;;;5033037;28;20674;-52
2022/10/03 04:14:07;;;;;;;26.03;10.87;;;8.90;99.90;;;;;;5033330;28;20258;-56
2022/10/03 04:19:48;;;;;;;29.30;10.37;;;9.00;99.90;;;;;;5033167;28;20268;-56
2022/10/03 04:22:29;;;;;;;32.93;12.00;;;9.00;99.90;;;;;;5033335;28;20218;-56
2022/10/03 04:25:25;;;;;;;36.53;11.50;;;9.00;99.90;;;;;;5032972;28;20590;-55
2022/10/03 04:28:06;;;;;;;27.07;11.60;;;9.00;99.90;;;;;;5032990;28;20280;-56
2022/10/03 04:30:43;;;;;;;30.30;11.07;;;9.10;99.90;;;;;;5032753;28;20683;-53
2022/10/03 04:33:20;;;;;;;32.63;11.37;;;9.10;99.90;;;;;;5032767;28;20628;-48
2022/10/03 04:36:29;;;;;;;38.87;12.73;;;9.10;99.90;;;;;;5032473;28;20231;-48
2022/10/03 04:39:06;;;;;;;25.43;11.50;;;9.10;99.90;;;;;;5032701;28;20242;-49
2022/10/03 04:41:42;;;;;;;33.90;12.07;;;9.20;99.90;;;;;;5034363;28;20212;-56
2022/10/03 04:44:18;;;;;;;40.23;11.10;;;9.20;99.90;;;;;;5035076;28;20217;-56
2022/10/03 04:46:54;;;;;;;32.17;11.23;;;9.10;99.90;;;;;;5032765;28;20664;-55
2022/10/03 04:49:30;;;;;;;27.30;10.53;;;9.10;99.90;;;;;;5032612;28;20202;-53
2022/10/03 04:52:00;;;;;;;27.43;10.73;;;9.10;99.90;;;;;;5032464;28;20205;-56
2022/10/03 04:54:42;;;;;;;27.33;10.80;;;9.10;99.90;;;;;;5032273;28;20300;-55
2022/10/03 04:57:20;;;;;;;31.40;11.27;;;9.10;99.90;;;;;;5032306;28;20206;-56
2022/10/03 04:59:52;;;;;;;34.57;12.77;;;9.10;99.90;;;;;;5032215;28;20229;-55
2022/10/03 05:02:32;;;;;;;32.20;11.50;;;9.10;99.90;;;;;;5031228;28;20234;-56
2022/10/03 05:05:13;;;;;;;33.03;11.90;;;9.00;99.90;;;;;;5032329;28;20288;-56
2022/10/03 05:07:49;;;;;;;33.03;11.97;;;9.00;99.90;;;;;;5032543;28;20229;-57
2022/10/03 05:10:28;;;;;;;27.40;12.80;;;9.00;99.90;;;;;;5032168;28;20208;-54
2022/10/03 05:13:01;;;;;;;28.67;11.37;;;9.00;99.90;;;;;;5032101;28;20213;-57
2022/10/03 05:15:32;;;;;;;30.63;11.70;;;9.00;99.90;;;;;;5031950;28;20204;-56
2022/10/03 05:18:10;;;;;;;28.67;11.90;;;9.00;99.90;;;;;;5031164;28;20232;-55
2022/10/03 05:20:49;;;;;;;30.17;11.70;;;9.00;99.90;;;;;;5031974;28;20230;-53
2022/10/03 05:23:30;;;;;;;24.60;10.87;;;9.00;99.90;;;;;;5031704;28;20213;-56
2022/10/03 05:26:05;;;;;;;33.13;12.77;;;9.00;99.90;;;;;;5031511;28;20267;-56
2022/10/03 05:28:39;;;;;;;34.03;12.97;;;9.00;99.90;;;;;;5032060;28;20278;-57
2022/10/03 05:31:19;;;;;;;35.07;11.90;;;9.00;99.90;;;;;;5031825;28;20547;-54
2022/10/03 05:34:00;;;;;;;31.33;12.30;;;8.90;99.90;;;;;;5031978;28;20266;-56
2022/10/03 05:36:33;;;;;;;30.03;12.70;;;9.00;99.90;;;;;;5031421;28;20216;-54
2022/10/03 05:39:37;;;;;;;34.33;12.40;;;9.00;99.90;;;;;;5032010;28;20233;-55
2022/10/03 05:42:28;;;;;;;31.13;11.30;;;9.10;99.90;;;;;;5031864;28;20932;-52
2022/10/03 05:45:02;;;;;;;31.70;11.40;;;9.10;99.90;;;;;;5029514;28;20765;-51
2022/10/03 05:47:48;;;;;;;41.80;13.50;;;9.00;99.90;;;;;;5031522;28;20226;-55
2022/10/03 05:50:48;;;;;;;28.77;12.20;;;9.00;99.90;;;;;;5031882;28;20699;-55
2022/10/03 05:53:46;;;;;;;32.47;13.37;;;9.10;99.90;;;;;;5031752;28;20228;-56
2022/10/03 05:56:21;;;;;;;29.67;11.57;;;9.10;99.90;;;;;;5031220;28;20694;-55
2022/10/03 05:59:22;;;;;;;35.50;11.90;;;9.10;99.90;;;;;;5031611;28;20252;-56
2022/10/03 06:02:32;;;;;;;28.20;12.10;;;9.20;99.90;;;;;;4996113;28;20295;-55
2022/10/03 06:05:28;;;;;;;23.40;11.80;;;9.20;99.90;;;;;;4975711;28;20218;-55
2022/10/03 06:08:16;;;;;;;30.13;12.33;;;9.20;99.90;;;;;;5015856;28;20715;-54
2022/10/03 06:10:49;;;;;;;25.67;11.90;;;9.30;99.90;;;;;;5031578;28;20209;-56
2022/10/03 06:13:22;;;;;;;37.33;12.60;;;9.30;99.90;;;;;;5031505;28;20213;-56
2022/10/03 06:15:57;;;;;;;29.63;12.90;;;9.40;99.90;;;;;;5031386;28;20272;-57
2022/10/03 06:18:50;;;;;;;36.00;12.80;;;9.50;99.90;;;;;;5031263;28;20283;-55
2022/10/03 06:21:40;;;;;;;35.77;13.37;;;9.50;99.90;;;;;;5031395;28;20649;-54
2022/10/03 06:24:48;;;;;;;35.50;13.53;;;9.60;99.90;;;;;;5031375;28;20206;-56
2022/10/03 06:27:38;;;;;;;43.13;14.10;;;9.70;99.90;;;;;;5031005;28;20243;-57
2022/10/03 06:30:23;;;;;;;31.63;13.23;;;9.70;99.90;;;;;;5034867;28;20210;-56
2022/10/03 06:33:41;;;;;;;34.20;13.40;;;9.80;99.90;;;;;;5035200;28;20207;-57
2022/10/03 06:36:36;;;;;;;34.37;13.07;;;9.80;99.90;;;;;;4973823;28;20208;-52
2022/10/03 06:39:46;;;;;;;34.83;12.03;;;9.90;99.90;;;;;;5032426;28;20281;-53
2022/10/03 06:42:43;;;;;;;39.57;12.37;;;9.90;99.90;;;;;;5035103;28;20229;-55
2022/10/03 06:45:50;;;;;;;27.93;12.50;;;9.90;99.90;;;;;;5034506;28;20210;-56
2022/10/03 06:48:42;;;;;;;30.67;12.57;;;9.90;99.90;;;;;;5034739;28;20780;-56
2022/10/03 06:51:44;;;;;;;30.33;12.20;;;10.00;99.90;;;;;;5026969;28;20206;-52
2022/10/03 06:54:36;;;;;;;34.07;13.23;;;10.10;99.90;;;;;;5009309;28;20252;-57
2022/10/03 06:57:18;;;;;;;33.27;12.93;;;10.10;99.90;;;;;;5034063;28;20207;-54
2022/10/03 07:00:08;;;;;;;37.37;14.33;;;10.20;99.90;;;;;;5034569;28;20229;-52
2022/10/03 07:03:17;;;;;;;26.67;13.37;;;10.20;99.90;;;;;;5034475;28;20217;-51
2022/10/03 07:06:08;;;;;;;33.63;13.37;;;10.30;99.90;;;;;;4999141;28;20246;-53
2022/10/03 07:08:58;;;;;;;36.40;13.60;;;10.30;99.90;;;;;;5034449;28;20230;-54
2022/10/03 07:11:46;;;;;;;33.10;12.67;;;10.40;99.90;;;;;;5034179;28;20751;-48
2022/10/03 07:14:38;;;;;;;33.77;14.47;;;10.40;99.90;;;;;;5034195;28;20210;-54
2022/10/03 07:17:22;;;;;;;43.07;15.37;;;10.40;99.90;;;;;;5034208;28;20214;-51
2022/10/03 07:20:18;;;;;;;27.67;13.13;;;10.50;99.90;;;;;;5034288;28;20317;-50
2022/10/03 07:23:31;;;;;;;30.33;13.77;;;10.60;99.90;;;;;;5033882;28;20203;-56
2022/10/03 07:26:44;;;;;;;36.40;14.80;;;10.60;99.90;;;;;;5033979;28;20905;-50
2022/10/03 07:29:28;;;;;;;38.47;14.03;;;10.80;99.90;;;;;;5033903;28;20238;-52
2022/10/03 07:32:30;;;;;;;37.03;15.10;;;10.80;99.90;;;;;;5034217;28;20260;-53
2022/10/03 07:38:59;;;;;;;28.27;12.90;;;10.90;99.90;;;;;;5033280;28;20226;-53
2022/10/03 07:41:51;;;;;;;41.07;13.23;;;11.00;99.90;;;;;;5033342;28;20233;-56
2022/10/03 07:44:44;;;;;;;29.63;11.07;;;11.10;99.90;;;;;;5033908;28;20293;-56
2022/10/03 07:47:45;;;;;;;26.37;10.80;;;11.10;99.90;;;;;;5033831;28;20857;-56
2022/10/03 07:50:50;;;;;;;18.93;9.57;;;11.10;99.90;;;;;;5034076;28;20255;-53
2022/10/03 07:53:48;;;;;;;22.70;10.10;;;10.90;99.90;;;;;;5033945;28;20233;-57
2022/10/03 07:56:41;;;;;;;20.73;9.40;;;10.90;99.90;;;;;;5033793;28;20206;-49
2022/10/03 07:59:39;;;;;;;21.67;9.33;;;10.90;99.90;;;;;;5035135;28;20237;-57
2022/10/03 08:02:25;;;;;;;21.90;9.27;;;11.00;99.90;;;;;;5009621;28;20225;-57
2022/10/03 08:05:14;;;;;;;19.70;8.63;;;11.10;99.90;;;;;;5033325;28;20198;-55
2022/10/03 08:08:09;;;;;;;23.20;8.17;;;11.30;99.90;;;;;;5032982;28;20241;-57
2022/10/03 08:11:05;;;;;;;23.53;8.30;;;11.40;99.90;;;;;;5033175;28;20210;-55
2022/10/03 08:13:43;;;;;;;24.40;8.40;;;11.40;99.90;;;;;;5033411;28;20272;-54
2022/10/03 08:16:25;;;;;;;20.17;8.80;;;11.50;99.90;;;;;;5032964;28;20677;-55
2022/10/03 08:19:22;;;;;;;18.50;8.67;;;11.60;99.90;;;;;;5032838;28;20712;-55
2022/10/03 08:22:03;;;;;;;22.10;7.93;;;11.70;99.90;;;;;;5032744;28;20219;-58
2022/10/03 08:25:10;;;;;;;16.33;7.53;;;11.80;99.90;;;;;;5032849;28;20238;-57
2022/10/03 08:28:02;;;;;;;17.50;8.53;;;11.90;99.90;;;;;;4971631;28;20657;-57
2022/10/03 08:30:45;;;;;;;19.80;7.60;;;12.00;99.90;;;;;;5033141;28;20641;-57
2022/10/03 08:33:38;;;;;;;23.70;6.77;;;12.20;99.90;;;;;;5033056;28;20192;-57
2022/10/03 08:36:47;;;;;;;17.57;7.67;;;12.20;99.90;;;;;;5032917;28;20268;-57
2022/10/03 08:39:26;;;;;;;20.00;7.23;;;12.30;99.90;;;;;;5032794;28;20284;-57
2022/10/03 08:42:36;;;;;;;21.77;7.77;;;12.30;99.90;;;;;;5032676;28;20230;-57
2022/10/03 08:45:38;;;;;;;15.93;7.93;;;12.40;99.90;;;;;;5032657;28;20686;-57
2022/10/03 08:48:34;;;;;;;11.50;6.70;;;12.40;99.90;;;;;;5032344;28;20747;-54
2022/10/03 08:51:33;;;;;;;18.07;6.90;;;12.50;99.90;;;;;;5007127;28;20209;-57
2022/10/03 08:54:13;;;;;;;14.47;6.37;;;12.60;99.90;;;;;;5032057;28;20673;-54
2022/10/03 08:56:51;;;;;;;16.03;6.30;;;12.70;99.90;;;;;;5032709;28;20213;-56
2022/10/03 09:00:03;;;;;;;19.97;6.53;;;12.90;99.90;;;;;;5032207;28;20210;-57
2022/10/03 09:03:06;;;;;;;16.73;5.73;;;13.10;99.90;;;;;;5032529;28;20305;-55
2022/10/03 09:06:12;;;;;;;17.67;6.37;;;13.20;99.90;;;;;;4999231;28;20206;-58
2022/10/03 09:09:16;;;;;;;17.67;6.43;;;13.20;99.90;;;;;;5032069;28;20672;-56
2022/10/03 09:12:19;;;;;;;11.73;6.40;;;13.20;99.90;;;;;;5032322;28;20727;-55
2022/10/03 09:15:28;;;;;;;22.43;6.20;;;13.20;99.90;;;;;;5009981;28;20216;-56
2022/10/03 09:18:27;;;;;;;16.50;6.13;;;13.30;99.90;;;;;;5031946;28;20229;-58
2022/10/03 09:21:30;;;;;;;19.80;6.33;;;13.30;99.90;;;;;;5032147;28;20229;-58
2022/10/03 09:24:18;;;;;;;17.10;6.50;;;13.30;99.90;;;;;;5032051;28;20209;-62
2022/10/03 09:27:22;;;;;;;22.70;6.47;;;13.40;99.90;;;;;;5031971;28;20218;-63
2022/10/03 09:30:21;;;;;;;12.77;5.70;;;13.50;99.90;;;;;;5031910;28;20235;-62
2022/10/03 09:33:38;;;;;;;11.23;5.30;;;13.70;99.90;;;;;;5032094;28;20206;-63
2022/10/03 09:36:49;;;;;;;10.37;5.20;;;13.80;99.90;;;;;;5031786;28;20208;-63
2022/10/03 09:39:53;;;;;;;12.57;5.47;;;13.80;99.90;;;;;;5004078;28;20254;-62
2022/10/03 09:42:43;;;;;;;16.10;5.47;;;14.00;99.90;;;;;;5031913;28;20621;-62
2022/10/03 09:45:44;;;;;;;15.20;5.97;;;14.10;99.90;;;;;;5031935;28;20214;-62
2022/10/03 09:48:28;;;;;;;18.70;5.50;;;14.10;99.90;;;;;;5030530;28;20233;-63
2022/10/03 09:51:20;;;;;;;15.23;3.97;;;14.20;99.90;;;;;;5031592;28;20252;-64
2022/10/03 09:54:25;;;;;;;10.47;2.67;;;14.30;99.90;;;;;;5031770;28;20206;-63
2022/10/03 09:57:37;;;;;;;11.07;2.73;;;14.20;99.90;;;;;;5031481;28;20824;-62
2022/10/03 10:00:22;;;;;;;12.93;2.83;;;14.20;99.90;;;;;;5031569;28;20213;-63
2022/10/03 10:03:22;;;;;;;8.20;2.83;;;14.20;99.90;;;;;;5031556;28;20194;-63
2022/10/03 10:06:22;;;;;;;11.00;3.00;;;14.30;99.90;;;;;;5035688;28;20213;-63
2022/10/03 10:09:27;;;;;;;13.30;2.40;;;14.50;99.90;;;;;;5035456;28;20593;-64
2022/10/03 10:12:24;;;;;;;9.33;2.20;;;14.70;99.90;;;;;;5035957;28;20252;-64
2022/10/03 10:15:13;;;;;;;8.57;1.60;;;14.90;99.90;;;;;;5035320;28;20210;-63
2022/10/03 10:18:16;;;;;;;5.70;1.67;;;14.90;99.90;;;;;;5035321;28;20292;-63
2022/10/03 10:21:26;;;;;;;9.10;2.13;;;14.90;98.60;;;;;;5014364;28;20594;-58
2022/10/03 10:24:07;;;;;;;6.90;1.80;;;14.70;98.40;;;;;;5035392;28;20301;-60
2022/10/03 10:27:04;;;;;;;7.37;1.70;;;14.70;96.90;;;;;;5034858;28;20210;-60
2022/10/03 10:30:23;;;;;;;5.27;1.70;;;14.70;91.80;;;;;;5035861;28;20206;-60
2022/10/03 10:33:27;;;;;;;5.33;1.73;;;14.70;91.70;;;;;;4993316;28;20218;-59
2022/10/03 10:36:30;;;;;;;7.37;1.50;;;14.80;92.30;;;;;;4993165;28;20207;-59
2022/10/03 10:39:31;;;;;;;7.70;2.00;;;14.90;94.90;;;;;;5032091;28;20230;-59
2022/10/03 10:42:36;;;;;;;8.10;1.53;;;15.00;70.10;;;;;;5034988;28;20222;-58
2022/10/03 10:45:37;;;;;;;11.63;2.20;;;15.10;75.90;;;;;;5026476;28;20210;-56
2022/10/03 10:48:37;;;;;;;8.13;1.70;;;15.20;61.10;;;;;;5033869;28;20276;-57
2022/10/03 10:51:34;;;;;;;6.40;1.20;;;15.30;59.70;;;;;;5034397;28;20206;-56
2022/10/03 10:54:33;;;;;;;6.97;1.80;;;15.40;47.40;;;;;;5034458;28;20210;-57
2022/10/03 10:57:26;;;;;;;9.57;2.00;;;15.70;83.60;;;;;;5033837;28;20587;-55
2022/10/03 11:00:19;;;;;;;7.13;1.70;;;15.90;22.00;;;;;;5034494;28;20218;-57
2022/10/03 11:03:38;;;;;;;5.60;1.87;;;15.90;1.00;;;;;;5034376;28;20230;-61
2022/10/03 11:06:46;;;;;;;10.50;1.90;;;16.00;1.00;;;;;;5034150;28;20242;-62
2022/10/03 11:09:42;;;;;;;7.00;1.80;;;16.10;1.00;;;;;;5034225;28;20223;-62
2022/10/03 11:12:40;;;;;;;9.63;1.80;;;16.30;99.90;;;;;;5036809;28;20229;-62
2022/10/03 11:15:46;;;;;;;5.93;1.43;;;16.30;1.00;;;;;;5033937;28;20207;-62
2022/10/03 11:18:43;;;;;;;5.83;1.63;;;16.00;1.00;;;;;;5033821;28;20622;-60
2022/10/03 11:21:42;;;;;;;8.43;1.53;;;15.90;3.60;;;;;;5033804;28;20222;-62
2022/10/03 11:25:01;;;;;;;4.20;1.50;;;16.00;90.60;;;;;;5033533;28;20214;-61
2022/10/03 11:27:57;;;;;;;3.00;1.13;;;16.10;99.90;;;;;;4972116;28;20280;-61
2022/10/03 11:30:57;;;;;;;9.23;2.13;;;16.00;1.00;;;;;;4972800;28;20216;-61
2022/10/03 11:34:11;;;;;;;8.23;2.07;;;15.80;99.90;;;;;;5030773;28;20673;-60
2022/10/03 11:36:58;;;;;;;6.23;1.40;;;16.10;1.00;;;;;;4997351;28;20206;-61
2022/10/03 11:39:34;;;;;;;6.33;2.00;;;16.40;1.00;;;;;;5033449;28;20206;-61
2022/10/03 11:42:06;;;;;;;5.60;1.67;;;16.40;1.00;;;;;;5033631;28;20221;-63
2022/10/03 11:44:36;;;;;;;4.47;1.43;;;16.50;1.00;;;;;;5033444;28;20221;-61
2022/10/03 11:47:35;;;;;;;5.57;1.40;;;16.70;1.00;;;;;;5032569;28;20210;-61
2022/10/03 11:50:42;;;;;;;4.13;1.23;;;16.70;1.00;;;;;;5033785;28;20211;-58
2022/10/03 11:53:25;;;;;;;6.27;1.40;;;16.30;1.00;;;;;;5028330;28;20213;-60
2022/10/03 11:56:03;;;;;;;5.87;1.40;;;16.30;1.00;;;;;;5033889;28;20205;-58
2022/10/03 11:58:38;;;;;;;6.10;1.20;;;16.40;99.90;;;;;;5033496;28;20230;-59
2022/10/03 12:01:23;;;;;;;7.00;1.57;;;16.40;99.90;;;;;;5033249;28;20222;-60
2022/10/03 12:03:57;;;;;;;3.70;1.63;;;16.40;1.00;;;;;;5033204;28;20689;-56
2022/10/03 12:09:41;;;;;;;4.93;1.60;;;15.90;99.90;;;;;;5033088;28;20260;-58
2022/10/03 12:12:16;;;;;;;6.40;1.70;;;15.60;90.30;;;;;;5032844;28;20206;-59
2022/10/03 12:14:45;;;;;;;5.57;1.70;;;15.80;73.70;;;;;;5033166;28;20688;-62
2022/10/03 12:17:17;;;;;;;8.17;1.60;;;15.80;1.00;;;;;;5032262;28;20202;-61
2022/10/03 12:19:57;;;;;;;5.63;1.63;;;15.90;99.90;;;;;;5032231;28;20210;-60
2022/10/03 12:22:45;;;;;;;6.90;2.50;;;15.90;99.90;;;;;;5029167;28;20233;-60
2022/10/03 12:25:20;;;;;;;5.00;1.73;;;15.90;99.90;;;;;;5013114;28;20206;-61
2022/10/03 12:28:13;;;;;;;4.50;1.47;;;16.00;1.00;;;;;;5032135;28;20573;-62
2022/10/03 12:30:48;;;;;;;9.47;2.23;;;15.90;99.90;;;;;;5030025;28;20242;-61
2022/10/03 12:33:28;;;;;;;6.57;2.10;;;16.10;99.90;;;;;;5032233;28;20668;-61
2022/10/03 12:36:03;;;;;;;3.73;1.50;;;16.20;1.00;;;;;;5031993;28;20210;-61
2022/10/03 12:38:42;;;;;;;4.00;1.37;;;16.30;1.00;;;;;;5031799;28;20225;-62
2022/10/03 12:41:21;;;;;;;4.40;1.60;;;16.30;1.00;;;;;;5032299;28;20214;-62
2022/10/03 12:44:06;;;;;;;4.20;1.20;;;16.40;1.00;;;;;;5032030;28;20665;-61
2022/10/03 12:46:41;;;;;;;5.57;1.43;;;16.40;1.00;;;;;;5031743;28;20210;-62
2022/10/03 12:49:15;;;;;;;6.30;1.90;;;16.30;1.00;;;;;;5032115;28;20380;-62
2022/10/03 12:51:52;;;;;;;12.40;1.53;;;16.20;1.00;;;;;;5031592;28;20202;-56
2022/10/03 12:54:39;;;;;;;8.33;2.10;;;16.10;15.60;;;;;;5032331;28;20300;-59
2022/10/03 12:57:37;;;;;;;10.13;1.87;;;16.20;1.00;;;;;;5031563;28;20210;-58
2022/10/03 13:00:06;;;;;;;6.63;2.07;;;16.40;1.00;;;;;;5031636;28;20259;-59
2022/10/03 13:02:39;;;;;;;6.10;1.60;;;16.30;1.00;;;;;;5031433;28;20226;-59
2022/10/03 13:05:35;;;;;;;4.20;1.40;;;16.30;1.00;;;;;;5032222;28;20210;-59
2022/10/03 13:08:05;;;;;;;4.20;1.57;;;16.20;1.00;;;;;;5031542;28;20226;-61
2022/10/03 13:10:41;;;;;;;3.83;1.70;;;16.30;1.00;;;;;;5031761;28;20217;-61
2022/10/03 13:13:22;;;;;;;5.87;1.53;;;16.50;99.90;;;;;;5031977;28;20308;-61
2022/10/03 13:16:14;;;;;;;4.33;1.73;;;16.50;99.90;;;;;;5031650;28;20253;-61
2022/10/03 13:18:56;;;;;;;4.00;1.40;;;16.60;1.00;;;;;;5031631;28;20647;-62
2022/10/03 13:21:44;;;;;;;8.20;1.60;;;16.50;65.40;;;;;;5031958;28;20646;-60
2022/10/03 13:24:26;;;;;;;5.77;1.30;;;16.70;99.90;;;;;;5032083;28;20281;-59
2022/10/03 13:27:05;;;;;;;4.40;1.20;;;16.90;99.90;;;;;;5030929;28;20644;-61
2022/10/03 13:29:39;;;;;;;7.17;1.37;;;17.00;36.20;;;;;;5032284;28;20206;-61
2022/10/03 13:32:25;;;;;;;6.07;1.27;;;17.10;41.50;;;;;;5032366;28;20586;-61
2022/10/03 13:38:32;;;;;;;3.67;1.20;;;17.30;99.90;;;;;;5002917;28;20281;-60
2022/10/03 13:41:08;;;;;;;8.63;1.53;;;17.20;99.90;;;;;;5012009;28;20643;-64
2022/10/03 13:43:39;;;;;;;5.43;1.30;;;17.40;1.00;;;;;;5011846;28;20213;-62
2022/10/03 13:46:15;;;;;;;4.67;1.00;;;17.30;99.90;;;;;;5011341;28;20601;-61
2022/10/03 13:48:46;;;;;;;4.67;1.00;;;17.10;99.90;;;;;;5011646;28;20233;-60
2022/10/03 13:51:25;;;;;;;4.00;1.10;;;17.30;99.90;;;;;;5011449;28;20206;-67
2022/10/03 13:54:02;;;;;;;3.53;1.30;;;17.20;99.90;;;;;;5011611;28;20206;-63
2022/10/03 13:56:40;;;;;;;6.47;1.43;;;17.50;99.90;;;;;;5011020;28;20190;-64
2022/10/03 13:59:32;;;;;;;5.60;1.40;;;17.60;99.90;;;;;;5011783;28;20222;-62
2022/10/03 14:02:13;;;;;;;4.13;1.40;;;17.40;99.90;;;;;;5011323;28;20277;-58
2022/10/03 14:05:25;;;;;;;4.10;1.27;;;17.50;99.90;;;;;;5011398;28;20203;-58
2022/10/03 14:08:00;;;;;;;7.17;1.20;;;17.50;99.90;;;;;;5000726;28;20219;-57
2022/10/03 14:10:55;;;;;;;3.27;1.30;;;17.50;99.90;;;;;;5011855;28;20190;-59
2022/10/03 14:13:31;;;;;;;4.43;1.37;;;17.70;99.90;;;;;;5011343;28;20253;-56
2022/10/03 14:16:08;;;;;;;7.93;1.20;;;17.70;99.90;;;;;;5011296;28;20636;-60
2022/10/03 14:18:45;;;;;;;8.03;1.40;;;17.50;99.90;;;;;;5011185;28;20238;-60
2022/10/03 14:21:35;;;;;;;5.37;1.20;;;17.70;99.90;;;;;;5011273;28;20206;-57
2022/10/03 14:24:09;;;;;;;3.87;1.00;;;17.70;99.90;;;;;;5011527;28;20203;-61
2022/10/03 14:26:44;;;;;;;2.37;0.80;;;17.60;26.10;;;;;;5012957;28;20213;-60
2022/10/03 14:29:19;;;;;;;4.77;1.27;;;17.50;49.10;;;;;;5012911;28;20586;-61
2022/10/03 14:31:51;;;;;;;4.87;1.00;;;17.60;1.00;;;;;;5011438;28;20670;-61
2022/10/03 14:34:27;;;;;;;5.53;1.20;;;17.50;1.00;;;;;;5011952;28;20261;-60
2022/10/03 14:37:02;;;;;;;4.00;0.83;;;17.50;1.00;;;;;;5010614;28;20206;-61
2022/10/03 14:39:39;;;;;;;6.20;2.77;;;17.20;1.00;;;;;;5011109;28;20806;-61
2022/10/03 14:42:26;;;;;;;5.40;1.53;;;17.40;1.00;;;;;;5011094;28;20226;-61
2022/10/03 14:44:56;;;;;;;3.30;1.20;;;17.30;1.00;;;;;;5011133;28;20219;-61